Latest Weather Observations for Warrnambool

IDV60801

Issued at 5:42 pm EST Sunday 18 August 2019 (issued every 10 minutes, with the page automatically refreshed every 10 minutes)

About weather observations | Map of weather stations | Latest weather observations for VIC | Other Formats
Station Details ID: 090186 Name: WARRNAMBOOL AIRPORT NDB Lat: -38.29 Lon: 142.45 Height: 70.8 m
Data from the previous 72 hours. | See also: Recent months at Warrnambool
Date/Time
EST
Temp
°C
App
Temp
°C
Dew
Point
°C
Rel
Hum
%
Delta-T
°C
Wind Press
QNH
hPa
Press
MSL
hPa
Rain since
9am
mm
Dir  Spd
km/h
Gust
km/h
Spd
kts
Gust
kts
18/05:35pm 7.2 -3.4 6.8 97 0.2 WSW 52 80 28 43 1004.8 1004.9 4.8
18/05:30pm 7.5 -1.9 7.1 97 0.2 WSW 46 63 25 34 1004.6 1004.7 4.6
18/05:25pm 7.8 -0.3 7.2 96 0.3 WSW 39 63 21 34 1004.2 1004.3 3.0
18/05:24pm 8.0 0.0 7.6 97 0.2 WSW 39 52 21 28 1004.1 1004.2 2.8
18/05:19pm 8.0 0.0 7.4 96 0.3 WSW 39 48 21 26 1003.8 1003.9 2.6
18/05:00pm 8.4 0.2 8.0 97 0.2 WSW 41 61 22 33 1003.0 1003.1 1.8
18/04:57pm 8.5 -0.2 7.9 96 0.3 W 43 61 23 33 1002.8 1002.9 1.4
18/04:52pm 8.5 0.2 7.7 95 0.4 W 41 61 22 33 1002.4 1002.4 1.2
18/04:51pm 8.4 0.1 7.6 95 0.4 W 41 57 22 31 1002.3 1002.3 1.2
18/04:40pm 8.2 -1.6 7.1 93 0.5 WNW 48 78 26 42 1001.7 1001.7 1.0
18/04:32pm 7.9 -1.3 5.4 84 1.1 NW 43 63 23 34 1001.9 1001.9 0.4
18/04:30pm 8.6 -0.5 5.9 83 1.2 NW 43 63 23 34 1002.0 1002.0 0.4
18/04:05pm 12.1 4.3 6.6 69 2.6 NW 37 56 20 30 1000.9 1000.9 0.0
18/04:00pm 11.7 4.3 6.6 71 2.4 NW 35 48 19 26 1001.0 1001.0 0.0
18/03:34pm 13.3 5.4 6.4 63 3.3 NW 37 57 20 31 1000.7 1000.7 0.0
18/03:30pm 13.0 5.4 7.5 69 2.7 NW 37 46 20 25 1000.8 1000.8 0.0
18/03:00pm 13.1 4.1 6.5 64 3.2 NNW 43 65 23 35 1000.6 1000.6 0.0
18/02:38pm 13.7 5.4 7.7 67 3.0 NNW 41 61 22 33 1000.7 1000.7 0.0
18/02:30pm 13.8 5.9 8.0 68 2.9 NNW 39 50 21 27 1000.9 1000.9 0.0
18/02:17pm 14.1 6.8 8.7 70 2.7 NNW 37 56 20 30 1001.0 1001.0 0.0
18/02:00pm 13.4 5.5 7.8 69 2.8 NNW 39 50 21 27 1001.1 1001.1 0.0
18/01:37pm 13.3 6.0 7.3 67 2.9 NNW 35 56 19 30 1001.6 1001.6 0.0
18/01:30pm 12.3 4.5 6.8 69 2.6 NNW 37 52 20 28 1001.8 1001.8 0.0
18/01:00pm 11.7 3.5 8.0 78 1.8 NNW 41 56 22 30 1002.1 1002.1 0.0
18/12:52pm 11.9 4.4 7.8 76 2.0 NW 37 56 20 30 1002.1 1002.1 0.0
18/12:30pm 13.9 7.1 9.1 73 2.4 NNW 35 46 19 25 1002.2 1002.2 0.0
18/12:00pm 12.3 5.2 8.2 76 2.0 NNW 35 48 19 26 1003.0 1003.1 0.0
18/11:30am 11.8 5.6 7.9 77 1.9 N 30 39 16 21 1003.3 1003.4 0.0
18/11:00am 11.2 5.8 7.9 80 1.6 N 26 35 14 19 1004.0 1004.1 0.0
18/10:30am 11.3 6.5 7.2 76 2.0 N 22 32 12 17 1004.0 1004.1 0.0
18/10:00am 11.3 6.2 7.6 78 1.8 N 24 32 13 17 1004.7 1004.8 0.0
18/09:30am 11.6 6.8 7.3 75 2.1 N 22 37 12 20 1005.2 1005.3 0.0
18/09:00am 11.2 7.0 7.5 78 1.8 NNW 19 24 10 13 1005.4 1005.5 0.0
18/08:30am 11.4 5.8 7.1 75 2.1 NW 26 39 14 21 1005.8 1005.9 0.0
18/08:00am 11.4 6.9 6.9 74 2.2 NNW 20 26 11 14 1005.6 1005.7 0.0
18/07:30am 8.5 5.5 6.1 85 1.1 N 11 13 6 7 1005.5 1005.6 0.0
18/07:00am 8.5 5.4 5.6 82 1.3 NNE 11 15 6 8 1005.2 1005.3 0.0
18/06:30am 7.7 4.1 5.0 83 1.2 NNE 13 15 7 8 1005.3 1005.4 0.0
18/06:00am 7.7 4.3 4.1 78 1.6 N 11 13 6 7 1005.4 1005.5 0.0
18/05:30am 9.7 4.4 4.9 72 2.2 NW 22 32 12 17 1005.6 1005.7 0.0
18/05:00am 10.5 2.7 4.9 68 2.6 NNE 35 46 19 25 1004.6 1004.7 0.0
18/04:30am 10.7 2.1 4.6 66 2.8 NNE 39 50 21 27 1005.1 1005.2 0.0
18/04:10am 10.9 2.3 4.6 65 2.8 NNE 39 57 21 31 1005.5 1005.6 0.0
18/04:00am 10.8 2.6 4.7 66 2.8 NNE 37 50 20 27 1005.8 1005.9 0.0
18/03:30am 10.8 2.6 4.7 66 2.8 NNE 37 50 20 27 1006.3 1006.4 0.0
18/03:07am 10.7 2.5 4.6 66 2.8 NNE 37 56 20 30 1006.7 1006.8 0.0
18/03:00am 10.5 3.1 4.9 68 2.5 NNE 33 46 18 25 1007.0 1007.1 0.0
18/02:30am 10.3 2.9 4.9 69 2.4 NNE 33 44 18 24 1007.5 1007.6 0.0
18/02:00am 10.0 2.8 5.2 72 2.2 NNE 32 41 17 22 1008.1 1008.2 0.0
18/01:30am 9.8 4.2 5.4 74 2.0 NNE 24 33 13 18 1009.0 1009.1 0.0
18/01:00am 10.0 4.4 5.4 73 2.1 N 24 32 13 17 1009.8 1009.9 0.0
18/12:30am 9.7 3.8 5.7 76 1.8 N 26 33 14 18 1009.9 1010.0 0.0
18/12:00am 9.6 3.0 6.0 78 1.7 NNE 30 37 16 20 1009.8 1009.9 0.0
 
Date/Time
EST
Temp
°C
App
Temp
°C
Dew
Point
°C
Rel
Hum
%
Delta-T
°C
Wind Press
QNH
hPa
Press
MSL
hPa
Rain since
9am
mm
Dir  Spd
km/h
Gust
km/h
Spd
kts
Gust
kts
17/11:30pm 9.6 3.7 6.0 78 1.7 NNE 26 33 14 18 1010.1 1010.2 0.0
17/11:00pm 9.0 3.9 5.9 81 1.4 NE 22 30 12 16 1010.8 1010.9 0.0
17/10:30pm 8.0 3.2 5.5 84 1.1 NNE 20 26 11 14 1012.1 1012.2 0.0
17/10:00pm 7.2 2.5 5.0 86 1.0 N 19 24 10 13 1013.2 1013.2 0.0
17/09:30pm 8.1 2.5 5.4 83 1.2 NNE 24 30 13 16 1012.6 1012.7 0.0
17/09:00pm 8.1 2.5 5.4 83 1.2 NNE 24 33 13 18 1013.1 1013.1 0.0
17/08:30pm 8.2 2.5 5.1 81 1.4 N 24 32 13 17 1013.7 1013.7 0.0
17/08:00pm 8.3 2.3 5.2 81 1.4 NNE 26 33 14 18 1013.6 1013.6 0.0
17/07:30pm 8.2 3.3 5.3 82 1.3 NNE 20 26 11 14 1013.9 1013.9 0.0
17/07:00pm 8.9 4.1 5.5 79 1.5 NNE 20 26 11 14 1014.1 1014.1 0.0
17/06:30pm 9.0 4.2 5.4 78 1.6 NNE 20 24 11 13 1014.4 1014.4 0.0
17/06:00pm 10.5 5.8 5.9 73 2.1 NNE 20 28 11 15 1014.0 1014.0 0.0
17/05:30pm 11.2 6.7 6.3 72 2.3 NNE 19 26 10 14 1014.2 1014.2 0.0
17/05:00pm 12.5 8.2 6.8 68 2.7 NNE 19 28 10 15 1014.4 1014.4 0.0
17/04:30pm 13.1 8.6 7.1 67 2.9 NNE 20 26 11 14 1014.8 1014.9 0.0
17/04:00pm 13.4 8.8 6.5 63 3.3 NNE 20 30 11 16 1015.1 1015.2 0.0
17/03:30pm 13.7 8.8 7.0 64 3.3 NNE 22 32 12 17 1015.6 1015.7 0.0
17/03:00pm 13.5 8.8 6.1 61 3.5 NNE 20 30 11 16 1016.0 1016.1 0.0
17/02:30pm 13.6 8.4 7.4 66 3.0 NNE 24 32 13 17 1016.3 1016.4 0.0
17/02:00pm 13.3 8.3 6.6 64 3.2 NNE 22 30 12 16 1016.6 1016.7 0.0
17/01:30pm 12.8 6.9 5.9 63 3.3 NNE 26 32 14 17 1017.2 1017.3 0.0
17/01:00pm 12.7 7.3 6.5 66 3.0 NNE 24 32 13 17 1017.6 1017.7 0.0
17/12:30pm 12.2 6.1 6.7 69 2.6 NNE 28 35 15 19 1018.4 1018.5 0.0
17/12:00pm 12.2 7.1 7.5 73 2.3 NNE 24 32 13 17 1019.1 1019.2 0.0
17/11:30am 11.4 5.7 6.5 72 2.3 NNE 26 33 14 18 1019.8 1019.9 0.0
17/11:00am 11.2 5.6 7.1 76 2.0 NNE 26 35 14 19 1019.9 1020.0 0.0
17/10:30am 11.0 6.0 8.1 82 1.4 NNE 24 30 13 16 1020.3 1020.4 0.0
17/10:00am 10.3 6.3 8.1 86 1.1 NNE 19 26 10 14 1020.6 1020.7 0.0
17/09:30am 9.7 7.0 9.1 96 0.3 NNE 13 20 7 11 1021.0 1021.1 0.0
17/09:00am 8.3 5.1 8.3 100 0.0 NNE 15 20 8 11 1021.3 1021.4 2.8
17/08:30am 7.1 4.7 7.1 100 0.0 NNE 9 13 5 7 1021.2 1021.3 2.8
17/08:00am 6.0 3.0 6.0 100 0.0 NNE 11 11 6 6 1021.2 1021.3 2.8
17/07:30am 5.9 2.5 5.9 100 0.0 NNE 13 15 7 8 1021.1 1021.2 2.8
17/07:00am 6.1 4.1 6.1 100 0.0 N 6 7 3 4 1020.9 1021.0 2.8
17/06:30am 5.4 3.2 5.4 100 0.0 N 6 9 3 5 1020.6 1020.7 2.8
17/06:00am 4.9 2.0 4.9 100 0.0 N 9 11 5 6 1020.7 1020.8 2.8
17/05:30am 4.2 1.2 4.2 100 0.0 N 9 11 5 6 1020.7 1020.8 2.8
17/05:23am 4.2 1.2 4.2 100 0.0 NNE 9 11 5 6 1020.7 1020.8 2.8
17/05:00am 4.2 1.6 4.2 100 0.0 NE 7 7 4 4 1020.6 1020.7 2.8
17/04:54am 4.5 2.1 4.5 100 0.0 ENE 6 7 3 4 1020.5 1020.6 2.8
17/04:30am 5.4 4.4 5.4 100 0.0 CALM 0 6 0 3 1020.5 1020.6 2.8
17/04:00am 6.0 3.9 6.0 100 0.0 NE 6 11 3 6 1020.4 1020.5 2.8
17/03:30am 6.2 4.0 6.2 100 0.0 N 7 9 4 5 1020.7 1020.8 2.8
17/03:00am 6.1 3.1 6.1 100 0.0 N 11 13 6 7 1020.8 1020.9 2.8
17/02:30am 6.5 3.6 6.5 100 0.0 NW 11 13 6 7 1020.9 1021.0 2.8
17/02:00am 6.0 3.3 5.7 98 0.1 NW 9 11 5 6 1021.2 1021.3 2.8
17/01:30am 6.6 3.7 6.3 98 0.1 NW 11 15 6 8 1021.3 1021.4 2.8
17/01:00am 6.7 3.4 6.3 97 0.2 NW 13 17 7 9 1021.1 1021.2 2.8
17/12:30am 6.4 3.3 5.7 95 0.3 NW 11 17 6 9 1021.1 1021.2 2.8
17/12:00am 6.2 3.0 5.3 94 0.4 NW 11 15 6 8 1021.2 1021.3 2.8
 
Date/Time
EST
Temp
°C
App
Temp
°C
Dew
Point
°C
Rel
Hum
%
Delta-T
°C
Wind Press
QNH
hPa
Press
MSL
hPa
Rain since
9am
mm
Dir  Spd
km/h
Gust
km/h
Spd
kts
Gust
kts
16/11:30pm 6.8 4.6 6.2 96 0.3 NNW 7 9 4 5 1021.0 1021.1 2.8
16/11:00pm 6.9 4.0 6.3 96 0.3 NW 11 11 6 6 1021.2 1021.3 2.8
16/10:30pm 7.3 4.4 6.7 96 0.3 NW 11 15 6 8 1020.9 1021.0 2.8
16/10:00pm 6.4 3.4 6.0 97 0.2 WNW 11 15 6 8 1021.0 1021.1 2.8
16/09:30pm 5.3 2.4 4.9 97 0.2 SW 9 11 5 6 1020.8 1020.9 2.8
16/09:00pm 5.7 2.9 5.1 96 0.3 SW 9 11 5 6 1020.4 1020.5 2.8
16/08:30pm 5.7 2.9 5.1 96 0.3 SW 9 9 5 5 1020.4 1020.5 2.8
16/08:00pm 5.4 4.2 4.4 93 0.4 CALM 0 0 0 0 1020.2 1020.3 2.8
16/07:30pm 7.5 5.3 6.3 92 0.5 SW 7 9 4 5 1020.0 1020.1 2.8
16/07:00pm 7.7 4.8 6.5 92 0.5 WSW 11 13 6 7 1019.7 1019.8 2.8
16/06:30pm 7.7 4.7 6.2 90 0.7 SSW 11 13 6 7 1019.3 1019.4 2.8
16/06:00pm 9.2 6.0 6.8 85 1.1 SW 13 15 7 8 1019.0 1019.1 2.8
16/05:30pm 10.1 5.7 7.2 82 1.4 SW 20 26 11 14 1018.6 1018.7 2.8
16/05:00pm 10.2 5.4 7.4 83 1.3 SSW 22 32 12 17 1018.2 1018.3 2.8
16/04:30pm 10.9 5.6 6.8 76 1.9 SW 24 28 13 15 1017.8 1017.9 2.8
16/04:00pm 11.1 5.4 6.6 74 2.1 SW 26 33 14 18 1017.5 1017.6 2.8
16/03:30pm 11.3 5.3 7.0 75 2.1 SW 28 35 15 19 1017.1 1017.2 2.8
16/03:00pm 12.0 5.3 7.5 74 2.2 SW 32 41 17 22 1016.8 1016.9 2.8
16/02:30pm 11.9 5.4 8.2 78 1.8 SW 32 43 17 23 1016.4 1016.5 2.8
16/02:00pm 11.3 4.5 7.6 78 1.8 SSW 33 43 18 23 1016.0 1016.1 2.8
16/01:30pm 12.0 5.1 8.7 80 1.6 SW 35 43 19 23 1015.8 1015.9 2.8
16/01:00pm 10.9 4.3 7.8 81 1.5 SW 32 43 17 23 1015.8 1015.9 2.8
16/12:30pm 10.9 4.2 9.5 91 0.7 SW 35 46 19 25 1015.5 1015.6 2.8
16/12:29pm 11.0 4.3 9.6 91 0.7 SW 35 46 19 25 1015.5 1015.6 2.8
16/12:05pm 9.7 4.2 9.2 97 0.2 SSW 28 44 15 24 1015.4 1015.5 2.8
16/12:04pm 9.9 4.5 9.6 98 0.2 SSW 28 44 15 24 1015.4 1015.5 2.8
16/12:00pm 10.5 4.9 10.3 99 0.1 SW 30 44 16 24 1015.3 1015.4 2.8
16/11:48am 10.6 5.4 10.4 99 0.1 SW 28 39 15 21 1015.3 1015.4 2.8
16/11:44am 10.7 5.6 10.7 100 0.0 SW 28 35 15 19 1015.2 1015.3 2.8
16/11:30am 9.9 4.2 9.9 100 0.0 SW 30 41 16 22 1015.1 1015.2 2.8
16/11:25am 10.2 5.7 10.2 100 0.0 SW 24 39 13 21 1015.0 1015.1 2.8
16/11:00am 9.7 3.6 9.7 100 0.0 SSW 32 43 17 23 1014.6 1014.7 2.4
16/10:30am 10.2 5.7 10.1 99 0.1 SW 24 32 13 17 1014.0 1014.0 2.0
16/10:17am 10.1 6.0 10.0 99 0.1 SSW 22 26 12 14 1013.9 1013.9 1.8
16/10:00am 9.9 4.1 9.4 97 0.2 SSW 30 35 16 19 1013.6 1013.6 1.4
16/09:30am 10.0 5.5 9.9 99 0.1 SW 24 33 13 18 1013.1 1013.1 1.2
16/09:08am 9.9 5.5 9.1 95 0.4 W 22 28 12 15 1012.6 1012.7 0.4
16/09:07am 10.0 5.7 9.2 95 0.4 W 22 28 12 15 1012.6 1012.7 0.4
16/09:00am 9.9 4.7 8.7 92 0.6 W 26 35 14 19 1012.5 1012.6 0.6
16/08:53am 10.2 6.2 8.3 88 0.9 WNW 19 33 10 18 1012.4 1012.5 0.6
16/08:30am 10.8 6.3 7.1 78 1.8 NNW 20 28 11 15 1011.5 1011.6 0.0
16/08:00am 10.4 5.3 6.2 75 2.0 NNW 22 30 12 16 1011.0 1011.1 0.0
16/07:30am 9.5 3.8 4.9 73 2.1 NNW 24 30 13 16 1010.9 1011.0 0.0
16/07:00am 10.2 4.9 4.8 69 2.4 NNW 22 28 12 15 1010.4 1010.5 0.0
16/06:30am 10.2 4.3 4.1 66 2.7 NNW 24 30 13 16 1010.1 1010.2 0.0
16/06:00am 10.5 4.5 3.5 62 3.1 NNW 24 30 13 16 1010.2 1010.3 0.0
16/05:30am 10.7 4.4 3.5 61 3.2 NNW 26 32 14 17 1010.4 1010.5 0.0
16/05:00am 11.5 4.8 3.5 58 3.6 NNW 28 39 15 21 1010.2 1010.3 0.0
16/04:30am 11.9 4.8 3.7 57 3.7 NNW 30 39 16 21 1010.2 1010.3 0.0
16/04:00am 12.8 6.2 4.0 55 4.0 NNW 28 37 15 20 1009.4 1009.5 0.0
16/03:30am 13.3 5.6 3.4 51 4.4 NNW 33 43 18 23 1010.3 1010.4 0.0
16/03:00am 13.3 5.8 4.5 55 4.1 NNW 33 52 18 28 1010.0 1010.1 0.0
16/02:30am 13.0 5.6 3.9 54 4.1 N 32 43 17 23 1010.6 1010.7 0.0
16/02:00am 12.1 5.5 4.1 58 3.6 N 28 37 15 20 1011.0 1011.1 0.0
16/01:30am 11.5 5.7 4.5 62 3.2 N 24 32 13 17 1011.4 1011.5 0.0
16/01:00am 11.7 5.2 4.7 62 3.2 N 28 35 15 19 1011.6 1011.7 0.0
16/12:30am 12.0 5.1 4.5 60 3.4 N 30 37 16 20 1011.9 1012.0 0.0
16/12:00am 11.6 5.6 5.5 66 2.8 N 26 32 14 17 1012.3 1012.4 0.0
 
Date/Time
EST
Temp
°C
App
Temp
°C
Dew
Point
°C
Rel
Hum
%
Delta-T
°C
Wind Press
QNH
hPa
Press
MSL
hPa
Rain since
9am
mm
Dir  Spd
km/h
Gust
km/h
Spd
kts
Gust
kts
15/11:30pm 10.8 6.3 6.2 73 2.2 N 19 26 10 14 1013.1 1013.1 0.0
15/11:00pm 10.2 6.3 7.1 81 1.5 N 17 20 9 11 1013.6 1013.6 0.0
15/10:30pm 10.5 6.7 7.6 82 1.4 N 17 20 9 11 1014.2 1014.2 0.0
15/10:00pm 9.7 6.7 7.8 88 0.9 NNE 13 17 7 9 1014.6 1014.7 0.0
15/09:30pm 9.7 6.7 7.8 88 0.9 NNE 13 17 7 9 1015.0 1015.1 0.0
15/09:00pm 10.0 7.0 7.8 86 1.1 N 13 19 7 10 1015.3 1015.4 0.0
15/08:30pm 10.2 6.5 8.0 86 1.1 N 17 19 9 10 1015.7 1015.8 0.0
15/08:00pm 10.0 6.4 8.4 90 0.8 NNE 17 20 9 11 1015.9 1016.0 0.0
15/07:30pm 9.8 7.7 8.1 89 0.8 N 9 11 5 6 1016.1 1016.2 0.0
15/07:00pm 10.2 7.7 8.1 87 1.0 NNW 11 11 6 6 1016.3 1016.4 0.0
15/06:30pm 10.7 8.3 8.5 86 1.1 N 11 13 6 7 1016.4 1016.5 0.0
15/06:00pm 10.8 8.7 8.2 84 1.3 NNW 9 13 5 7 1016.5 1016.6 0.0

Other formats

Comma delimited format used in spreadsheet applications
http://www.bom.gov.au/fwo/IDV60801/IDV60801.94837.axf

JavaScript Object Notation format (JSON) in row-major order
http://www.bom.gov.au/fwo/IDV60801/IDV60801.94837.json

Data quality

Most of these data are generated automatically and are frequently updated. Quality checks on data are not normally performed. It is possible for incorrect values to appear. Refer to information at About Latest Weather Observations and please check the disclaimer before using these data.